Time;durP1;ratioP1;P1;durP2;ratioP2;P2;SDS_P1;SDS_P2;PMS_P1;PMS_P2;Temp;Humidity;BMP_temperature;BMP_pressure;BME280_temperature;BME280_humidity;BME280_pressure;Samples;Min_cycle;Max_cycle;Signal;HPM_P1;HPM_P2
2023/12/04 00:01:45;;;;;;;17.70;11.63;;;;;-1.20;98469.00;;;;4896574;29;20044;-62
2023/12/04 00:04:12;;;;;;;19.73;10.55;;;;;-1.10;98468.00;;;;4896792;29;20049;-62
2023/12/04 00:06:41;;;;;;;19.70;10.70;;;;;-1.00;98462.00;;;;4895887;29;20045;-63
2023/12/04 00:09:08;;;;;;;19.98;11.50;;;;;-1.10;98464.00;;;;4896787;29;20052;-62
2023/12/04 00:11:35;;;;;;;18.30;11.15;;;;;-1.00;98451.00;;;;4896842;29;20466;-61
2023/12/04 00:14:01;;;;;;;16.38;11.00;;;;;-1.10;98446.00;;;;4894800;29;20096;-62
2023/12/04 00:16:28;;;;;;;23.65;12.07;;;;;-1.20;98437.00;;;;4896569;29;20097;-62
2023/12/04 00:18:55;;;;;;;18.10;11.02;;;;;-1.40;98437.00;;;;4896606;29;20047;-62
2023/12/04 00:21:22;;;;;;;15.82;10.23;;;;;-1.40;98434.00;;;;4895398;29;20058;-61
2023/12/04 00:23:48;;;;;;;17.88;10.15;;;;;-1.50;98429.00;;;;4896133;29;20058;-62
2023/12/04 00:26:15;;;;;;;21.17;11.27;;;;;-1.50;98429.00;;;;4896434;29;20055;-61
2023/12/04 00:28:41;;;;;;;17.45;10.18;;;;;-1.50;98416.00;;;;4896850;29;20041;-62
2023/12/04 00:31:08;;;;;;;16.02;9.80;;;;;-1.50;98414.00;;;;4898625;29;20132;-62
2023/12/04 00:33:35;;;;;;;16.17;9.57;;;;;-1.50;98419.00;;;;4899257;29;20388;-61
2023/12/04 00:36:02;;;;;;;15.38;8.95;;;;;-1.50;98415.00;;;;4898541;29;20065;-61
2023/12/04 00:38:28;;;;;;;12.93;8.73;;;;;-1.50;98412.00;;;;4899829;29;20072;-62
2023/12/04 00:40:55;;;;;;;15.20;9.85;;;;;-1.40;98407.00;;;;4898455;29;20053;-62
2023/12/04 00:43:22;;;;;;;15.07;9.52;;;;;-1.50;98402.00;;;;4898160;29;20646;-65
2023/12/04 00:45:48;;;;;;;17.40;9.15;;;;;-1.50;98399.00;;;;4899174;29;20049;-62
2023/12/04 00:48:15;;;;;;;19.23;9.82;;;;;-1.40;98411.00;;;;4899802;29;20044;-61
2023/12/04 00:50:42;;;;;;;14.40;8.48;;;;;-1.40;98407.00;;;;4898347;29;20422;-61
2023/12/04 00:53:08;;;;;;;13.98;9.07;;;;;-1.30;98404.00;;;;4899376;29;20421;-62
2023/12/04 00:55:35;;;;;;;13.68;8.75;;;;;-1.20;98410.00;;;;4898841;29;20578;-64
2023/12/04 00:58:01;;;;;;;16.23;9.63;;;;;-1.20;98415.00;;;;4899648;29;20044;-64
2023/12/04 01:00:28;;;;;;;13.48;8.07;;;;;-1.30;98403.00;;;;4898076;29;20108;-64
2023/12/04 01:02:55;;;;;;;15.05;9.43;;;;;-1.30;98399.00;;;;4899293;29;20574;-63
2023/12/04 01:05:21;;;;;;;15.80;9.27;;;;;-1.40;98393.00;;;;4898524;29;20059;-64
2023/12/04 01:07:48;;;;;;;16.83;9.77;;;;;-1.50;98398.00;;;;4899179;29;20047;-64
2023/12/04 01:10:15;;;;;;;16.02;10.13;;;;;-1.50;98393.00;;;;4882357;29;20048;-63
2023/12/04 01:12:41;;;;;;;18.15;9.52;;;;;-1.60;98399.00;;;;4897670;29;20052;-64
2023/12/04 01:15:09;;;;;;;16.85;9.77;;;;;-1.60;98388.00;;;;4898427;29;20052;-63
2023/12/04 01:17:35;;;;;;;15.80;9.73;;;;;-1.60;98394.00;;;;4898988;29;20076;-64
2023/12/04 01:20:02;;;;;;;14.25;8.40;;;;;-1.50;98394.00;;;;4899057;29;20108;-64
2023/12/04 01:22:29;;;;;;;13.30;8.75;;;;;-1.50;98375.00;;;;4897746;29;20044;-64
2023/12/04 01:24:55;;;;;;;18.23;10.43;;;;;-1.60;98373.00;;;;4898140;29;20048;-64
2023/12/04 01:27:22;;;;;;;16.40;9.23;;;;;-1.70;98380.00;;;;4897614;29;20041;-64
2023/12/04 01:29:49;;;;;;;16.77;9.43;;;;;-1.70;98363.00;;;;4897590;29;20129;-64
2023/12/04 01:32:15;;;;;;;15.75;9.60;;;;;-1.80;98369.00;;;;4898583;29;20522;-63
2023/12/04 01:34:42;;;;;;;17.13;9.45;;;;;-1.70;98361.00;;;;4896842;29;20051;-64
2023/12/04 01:37:09;;;;;;;15.73;8.98;;;;;-1.80;98360.00;;;;4897322;29;20076;-64
2023/12/04 01:39:35;;;;;;;16.60;9.82;;;;;-1.90;98358.00;;;;4898521;29;20123;-64
2023/12/04 01:42:02;;;;;;;18.60;10.93;;;;;-1.90;98361.00;;;;4897505;29;20175;-64
2023/12/04 01:44:29;;;;;;;14.25;9.82;;;;;-1.90;98349.00;;;;4898045;29;20442;-64
2023/12/04 01:46:56;;;;;;;17.13;10.90;;;;;-1.90;98345.00;;;;4898335;29;20045;-64
2023/12/04 01:49:24;;;;;;;20.55;10.85;;;;;-2.00;98328.00;;;;4897561;29;20087;-64
2023/12/04 01:51:51;;;;;;;15.88;10.60;;;;;-1.90;98334.00;;;;4897314;29;20067;-64
2023/12/04 01:54:18;;;;;;;19.85;10.98;;;;;-1.90;98322.00;;;;4897706;29;20067;-65
2023/12/04 01:56:46;;;;;;;18.52;10.38;;;;;-1.70;98324.00;;;;4898194;29;20047;-64
2023/12/04 01:59:13;;;;;;;17.48;10.00;;;;;-1.70;98325.00;;;;4897185;29;20059;-65
2023/12/04 02:01:40;;;;;;;16.40;10.00;;;;;-1.60;98324.00;;;;4898214;29;20413;-64
2023/12/04 02:04:07;;;;;;;15.02;9.07;;;;;-1.60;98320.00;;;;4897514;29;20096;-64
2023/12/04 02:06:34;;;;;;;15.65;9.45;;;;;-1.60;98319.00;;;;4898022;29;20048;-64
2023/12/04 02:09:01;;;;;;;16.95;9.80;;;;;-1.60;98322.00;;;;4897752;29;20079;-64
2023/12/04 02:11:28;;;;;;;14.77;8.68;;;;;-1.50;98310.00;;;;4898021;29;20100;-64
2023/12/04 02:13:55;;;;;;;15.10;9.50;;;;;-1.50;98312.00;;;;4897486;29;20059;-64
2023/12/04 02:16:26;;;;;;;16.40;10.15;;;;;-1.50;98310.00;;;;4897702;29;20044;-65
2023/12/04 02:18:53;;;;;;;15.43;9.60;;;;;-1.50;98302.00;;;;4897945;29;20500;-64
2023/12/04 02:21:19;;;;;;;15.20;8.75;;;;;-1.50;98297.00;;;;4896651;29;20546;-64
2023/12/04 02:23:52;;;;;;;15.85;9.05;;;;;-1.60;98289.00;;;;4895961;29;20067;-64
2023/12/04 02:26:23;;;;;;;17.98;10.25;;;;;-1.70;98299.00;;;;4897789;29;20135;-63
2023/12/04 02:28:57;;;;;;;16.92;10.63;;;;;-1.70;98273.00;;;;4896664;29;20116;-61
2023/12/04 02:31:24;;;;;;;18.17;10.88;;;;;-1.80;98265.00;;;;4896361;29;20048;-61
2023/12/04 02:33:56;;;;;;;16.70;10.23;;;;;-1.80;98266.00;;;;4895889;29;20052;-61
2023/12/04 02:36:25;;;;;;;19.08;11.07;;;;;-1.80;98264.00;;;;4880873;29;20144;-59
2023/12/04 02:38:53;;;;;;;17.65;10.55;;;;;-1.80;98254.00;;;;4896426;29;20116;-60
2023/12/04 02:41:20;;;;;;;18.20;10.85;;;;;-1.80;98244.00;;;;4897548;29;20072;-61
2023/12/04 02:43:47;;;;;;;17.90;11.25;;;;;-1.70;98246.00;;;;4897298;29;20057;-60
2023/12/04 02:46:13;;;;;;;19.92;11.18;;;;;-1.80;98244.00;;;;4897306;29;20052;-61
2023/12/04 02:48:40;;;;;;;20.58;12.23;;;;;-1.90;98236.00;;;;4896078;29;20439;-61
2023/12/04 02:51:07;;;;;;;19.63;12.25;;;;;-1.90;98235.00;;;;4897620;29;20040;-61
2023/12/04 02:53:33;;;;;;;21.05;11.95;;;;;-1.90;98234.00;;;;4895163;29;20075;-61
2023/12/04 02:56:00;;;;;;;21.40;12.93;;;;;-1.80;98229.00;;;;4897316;29;20102;-62
2023/12/04 02:58:26;;;;;;;19.90;11.50;;;;;-1.70;98225.00;;;;4897252;29;20048;-61
2023/12/04 03:00:53;;;;;;;18.65;11.15;;;;;-1.70;98222.00;;;;4895923;29;20051;-61
2023/12/04 03:03:20;;;;;;;19.77;11.30;;;;;-1.70;98229.00;;;;4897016;29;20041;-64
2023/12/04 03:05:46;;;;;;;19.70;12.63;;;;;-1.70;98223.00;;;;4895439;29;20048;-62
2023/12/04 03:08:13;;;;;;;22.83;12.85;;;;;-1.60;98234.00;;;;4896904;29;20044;-60
2023/12/04 03:10:40;;;;;;;20.15;11.85;;;;;-1.70;98234.00;;;;4895972;29;20048;-61
2023/12/04 03:13:06;;;;;;;25.42;14.40;;;;;-1.80;98225.00;;;;4896037;29;20071;-61
2023/12/04 03:15:33;;;;;;;22.40;13.07;;;;;-1.70;98221.00;;;;4896316;29;20064;-62
2023/12/04 03:18:00;;;;;;;22.10;13.57;;;;;-1.70;98225.00;;;;4896998;29;20048;-61
2023/12/04 03:20:32;;;;;;;22.42;12.98;;;;;-1.80;98219.00;;;;4895956;29;20067;-61
2023/12/04 03:22:59;;;;;;;23.67;13.82;;;;;-1.80;98226.00;;;;4895679;29;20057;-62
2023/12/04 03:25:25;;;;;;;23.63;12.88;;;;;-1.70;98222.00;;;;4895262;29;20048;-61
2023/12/04 03:27:52;;;;;;;21.80;13.48;;;;;-1.70;98230.00;;;;4896870;29;20055;-61
2023/12/04 03:30:20;;;;;;;24.38;13.40;;;;;-1.80;98231.00;;;;4897541;29;20045;-60
2023/12/04 03:32:46;;;;;;;21.92;14.18;;;;;-1.80;98228.00;;;;4895655;29;20059;-60
2023/12/04 03:35:13;;;;;;;21.65;12.75;;;;;-1.70;98232.00;;;;4895099;29;20108;-61
2023/12/04 03:37:40;;;;;;;20.58;12.77;;;;;-1.60;98230.00;;;;4896970;29;20068;-61
2023/12/04 03:40:07;;;;;;;23.02;14.48;;;;;-1.60;98234.00;;;;4895652;29;20129;-61
2023/12/04 03:42:34;;;;;;;24.13;15.30;;;;;-1.50;98236.00;;;;4895665;29;20044;-62
2023/12/04 03:45:01;;;;;;;20.85;12.55;;;;;-1.40;98232.00;;;;4894999;29;20048;-60
2023/12/04 03:47:27;;;;;;;21.00;12.38;;;;;-1.30;98220.00;;;;4896770;29;20056;-60
2023/12/04 03:49:54;;;;;;;19.67;12.63;;;;;-1.50;98216.00;;;;4895651;29;20048;-61
2023/12/04 03:52:20;;;;;;;21.23;12.75;;;;;-1.70;98215.00;;;;4895622;29;20123;-61
2023/12/04 03:54:47;;;;;;;22.35;12.70;;;;;-1.70;98224.00;;;;4896333;29;20092;-61
2023/12/04 03:57:13;;;;;;;22.70;13.90;;;;;-1.60;98217.00;;;;4896576;29;20101;-60
2023/12/04 03:59:40;;;;;;;22.65;13.80;;;;;-1.60;98216.00;;;;4896778;29;20095;-61
2023/12/04 04:02:07;;;;;;;26.25;15.77;;;;;-1.50;98214.00;;;;4895572;29;20143;-61
2023/12/04 04:04:33;;;;;;;26.08;14.75;;;;;-1.30;98220.00;;;;4897877;29;20067;-61
2023/12/04 04:07:00;;;;;;;25.23;15.60;;;;;-1.30;98216.00;;;;4900334;29;20326;-61
2023/12/04 04:09:26;;;;;;;25.13;14.88;;;;;-1.20;98219.00;;;;4900280;29;20165;-61
2023/12/04 04:11:53;;;;;;;21.70;13.52;;;;;-1.20;98219.00;;;;4900284;29;20135;-62
2023/12/04 04:14:19;;;;;;;25.88;14.90;;;;;-1.20;98216.00;;;;4899678;29;20048;-61
2023/12/04 04:16:46;;;;;;;26.02;15.60;;;;;-1.30;98229.00;;;;4898843;29;20051;-61
2023/12/04 04:19:13;;;;;;;31.33;16.10;;;;;-1.20;98229.00;;;;4900037;29;20052;-62
2023/12/04 04:21:40;;;;;;;27.25;15.07;;;;;-1.00;98245.00;;;;4898890;29;20071;-61
2023/12/04 04:24:07;;;;;;;29.00;15.50;;;;;-0.80;98238.00;;;;4898172;29;20417;-61
2023/12/04 04:26:34;;;;;;;23.40;13.63;;;;;-0.80;98239.00;;;;4899710;29;20072;-61
2023/12/04 04:29:00;;;;;;;21.67;13.30;;;;;-0.90;98235.00;;;;4898728;29;20143;-61
2023/12/04 04:31:27;;;;;;;20.30;12.85;;;;;-1.10;98222.00;;;;4898658;29;20055;-62
2023/12/04 04:33:53;;;;;;;19.23;12.65;;;;;-1.20;98222.00;;;;4899389;29;20165;-61
2023/12/04 04:36:20;;;;;;;23.70;12.85;;;;;-1.20;98227.00;;;;4899953;29;20040;-60
2023/12/04 04:38:46;;;;;;;20.73;12.45;;;;;-1.20;98226.00;;;;4899925;29;20127;-61
2023/12/04 04:41:15;;;;;;;22.15;13.27;;;;;-1.30;98214.00;;;;4898484;29;20494;-62
2023/12/04 04:43:42;;;;;;;22.25;12.15;;;;;-1.30;98216.00;;;;4898071;29;20049;-62
2023/12/04 04:46:09;;;;;;;19.33;12.00;;;;;-1.30;98218.00;;;;4898278;29;20054;-61
2023/12/04 04:48:35;;;;;;;18.27;12.10;;;;;-1.20;98227.00;;;;4898440;29;20144;-63
2023/12/04 04:51:02;;;;;;;18.98;12.23;;;;;-1.10;98226.00;;;;4898451;29;20495;-63
2023/12/04 04:53:29;;;;;;;20.80;12.15;;;;;-0.90;98214.00;;;;4898975;29;20092;-64
2023/12/04 04:55:55;;;;;;;16.27;11.10;;;;;-0.70;98213.00;;;;4899424;29;20070;-63
2023/12/04 04:58:22;;;;;;;18.42;11.60;;;;;-0.60;98220.00;;;;4899282;29;20481;-63
2023/12/04 05:00:48;;;;;;;23.02;12.98;;;;;-0.70;98225.00;;;;4899242;29;20044;-62
2023/12/04 05:03:15;;;;;;;20.10;12.05;;;;;-0.80;98206.00;;;;4898249;29;20059;-61
2023/12/04 05:05:42;;;;;;;22.27;12.75;;;;;-0.90;98197.00;;;;4898740;29;20506;-63
2023/12/04 05:08:09;;;;;;;20.35;12.75;;;;;-1.00;98193.00;;;;4898908;29;20483;-62
2023/12/04 05:10:35;;;;;;;20.10;12.82;;;;;-1.20;98188.00;;;;4899251;29;20045;-62
2023/12/04 05:13:02;;;;;;;24.30;12.85;;;;;-1.30;98184.00;;;;4899186;29;20040;-62
2023/12/04 05:15:28;;;;;;;24.77;13.75;;;;;-1.40;98178.00;;;;4896968;29;20064;-63
2023/12/04 05:17:55;;;;;;;24.95;13.60;;;;;-1.50;98173.00;;;;4899109;29;20128;-62
2023/12/04 05:20:21;;;;;;;19.60;12.32;;;;;-1.60;98162.00;;;;4898969;29;20044;-61
2023/12/04 05:22:49;;;;;;;25.60;14.90;;;;;-1.70;98159.00;;;;4897569;29;20052;-62
2023/12/04 05:25:15;;;;;;;17.95;12.20;;;;;-1.60;98168.00;;;;4897148;29;20524;-61
2023/12/04 05:27:42;;;;;;;21.45;12.68;;;;;-1.60;98153.00;;;;4898872;29;20056;-62
2023/12/04 05:30:09;;;;;;;23.73;13.68;;;;;-1.60;98160.00;;;;4898798;29;20095;-62
2023/12/04 05:32:35;;;;;;;20.80;13.32;;;;;-1.60;98157.00;;;;4898825;29;20044;-61
2023/12/04 05:35:02;;;;;;;22.95;13.50;;;;;-1.60;98150.00;;;;4898108;29;20067;-62
2023/12/04 05:37:29;;;;;;;21.08;13.50;;;;;-1.60;98142.00;;;;4897341;29;20076;-62
2023/12/04 05:39:56;;;;;;;21.27;12.95;;;;;-1.70;98130.00;;;;4898715;29;20054;-62
2023/12/04 05:42:22;;;;;;;25.17;13.98;;;;;-1.70;98140.00;;;;4898784;29;20501;-61
2023/12/04 05:44:49;;;;;;;21.92;13.32;;;;;-1.60;98147.00;;;;4898104;29;20055;-60
2023/12/04 05:47:15;;;;;;;23.35;14.00;;;;;-1.60;98135.00;;;;4897489;29;20044;-62
2023/12/04 05:49:42;;;;;;;22.83;14.40;;;;;-1.70;98132.00;;;;4898558;29;20059;-62
2023/12/04 05:52:09;;;;;;;25.10;14.65;;;;;-1.70;98117.00;;;;4898404;29;20560;-60
2023/12/04 05:54:36;;;;;;;24.17;14.57;;;;;-1.70;98116.00;;;;4896806;29;20286;-60
2023/12/04 05:57:02;;;;;;;25.73;14.77;;;;;-1.70;98117.00;;;;4898332;29;20127;-62
2023/12/04 05:59:29;;;;;;;24.38;14.07;;;;;-1.60;98106.00;;;;4896991;29;20194;-61
2023/12/04 06:01:55;;;;;;;25.02;14.20;;;;;-1.50;98097.00;;;;4898457;29;20050;-62
2023/12/04 06:04:22;;;;;;;22.75;13.90;;;;;-1.60;98095.00;;;;4897824;29;20056;-62
2023/12/04 06:06:49;;;;;;;22.85;14.15;;;;;-1.60;98074.00;;;;4898696;29;20048;-62
2023/12/04 06:09:16;;;;;;;23.52;14.52;;;;;-1.70;98084.00;;;;4897034;29;20052;-61
2023/12/04 06:11:43;;;;;;;21.88;13.30;;;;;-1.60;98073.00;;;;4898315;29;20052;-62
2023/12/04 06:14:13;;;;;;;21.58;13.05;;;;;-1.60;98076.00;;;;4896235;29;20067;-62
2023/12/04 06:16:39;;;;;;;23.73;14.35;;;;;-1.70;98073.00;;;;4897910;29;20044;-62
2023/12/04 06:19:06;;;;;;;26.35;15.45;;;;;-1.70;98060.00;;;;4896750;29;20127;-61
2023/12/04 06:21:32;;;;;;;22.30;13.10;;;;;-1.70;98051.00;;;;4898305;29;20057;-61
2023/12/04 06:23:59;;;;;;;24.17;14.15;;;;;-1.70;98045.00;;;;4896035;29;20052;-62
2023/12/04 06:26:31;;;;;;;24.95;13.98;;;;;-1.70;98034.00;;;;4896106;29;20049;-62
2023/12/04 06:28:58;;;;;;;23.85;13.38;;;;;-1.60;98042.00;;;;4897909;29;20505;-62
2023/12/04 06:31:24;;;;;;;19.67;12.32;;;;;-1.60;98032.00;;;;4896494;29;20147;-61
2023/12/04 06:33:51;;;;;;;25.10;13.93;;;;;-1.50;98030.00;;;;4896026;29;20143;-62
2023/12/04 06:36:18;;;;;;;24.92;13.52;;;;;-1.50;98026.00;;;;4897741;29;20467;-61
2023/12/04 06:38:47;;;;;;;22.33;14.10;;;;;-1.50;98023.00;;;;4897564;29;20487;-62
2023/12/04 06:41:13;;;;;;;20.85;12.90;;;;;-1.40;98016.00;;;;4896581;29;20477;-62
2023/12/04 06:43:40;;;;;;;18.95;12.70;;;;;-1.40;98018.00;;;;4896065;29;20052;-62
2023/12/04 06:46:08;;;;;;;18.85;11.85;;;;;-1.40;98023.00;;;;4897399;29;20574;-62
2023/12/04 06:48:35;;;;;;;20.30;12.80;;;;;-1.40;98023.00;;;;4896396;29;20064;-60
2023/12/04 06:51:02;;;;;;;20.58;12.80;;;;;-1.30;98012.00;;;;4896332;29;20161;-63
2023/12/04 06:53:28;;;;;;;18.40;11.48;;;;;-1.20;98021.00;;;;4895699;29;20049;-62
2023/12/04 06:55:55;;;;;;;23.02;14.23;;;;;-1.20;98015.00;;;;4896229;29;20053;-61
2023/12/04 06:58:21;;;;;;;25.25;15.10;;;;;-1.10;98021.00;;;;4896277;29;20045;-61
2023/12/04 07:00:48;;;;;;;26.67;13.75;;;;;-1.10;98013.00;;;;4896755;29;20044;-63
2023/12/04 07:03:15;;;;;;;17.40;12.07;;;;;-1.10;98014.00;;;;4899112;29;20414;-63
2023/12/04 07:05:42;;;;;;;20.38;11.60;;;;;-1.10;98016.00;;;;4897521;29;20056;-62
2023/12/04 07:08:08;;;;;;;16.15;11.60;;;;;-1.10;98012.00;;;;4897665;29;20048;-61
2023/12/04 07:10:35;;;;;;;20.83;12.93;;;;;-1.10;98007.00;;;;4912219;29;20131;-61
2023/12/04 07:13:01;;;;;;;20.73;12.52;;;;;-1.00;98015.00;;;;4897489;29;20076;-62
2023/12/04 07:15:28;;;;;;;19.02;12.48;;;;;-1.00;98018.00;;;;4896759;29;20139;-63
2023/12/04 07:17:55;;;;;;;20.55;13.15;;;;;-1.00;98018.00;;;;4899499;29;20119;-62
2023/12/04 07:20:23;;;;;;;20.73;12.52;;;;;-0.90;98029.00;;;;4904065;29;20052;-62
2023/12/04 07:22:51;;;;;;;19.77;11.93;;;;;-0.90;98017.00;;;;4903153;29;20049;-62
2023/12/04 07:25:17;;;;;;;21.27;13.07;;;;;-0.90;98029.00;;;;4901384;29;20486;-64
2023/12/04 07:27:44;;;;;;;21.77;13.73;;;;;-0.70;98025.00;;;;4901160;29;20112;-65
2023/12/04 07:30:11;;;;;;;23.85;12.65;;;;;-0.60;98023.00;;;;4901426;29;20077;-63
2023/12/04 07:32:37;;;;;;;19.40;12.48;;;;;-0.60;98034.00;;;;4900823;29;20048;-64
2023/12/04 07:35:05;;;;;;;21.98;12.40;;;;;-0.60;98018.00;;;;4900257;29;20044;-65
2023/12/04 07:37:32;;;;;;;20.83;11.65;;;;;-0.60;98016.00;;;;4900436;29;20076;-64
2023/12/04 07:39:59;;;;;;;17.58;11.05;;;;;-0.60;98028.00;;;;4905431;29;20055;-64
2023/12/04 07:42:25;;;;;;;18.52;11.18;;;;;-0.60;98028.00;;;;4901854;29;20041;-64
2023/12/04 07:44:52;;;;;;;21.15;11.70;;;;;-0.70;98006.00;;;;4901155;29;20123;-64
2023/12/04 07:47:19;;;;;;;19.65;11.70;;;;;-0.70;98016.00;;;;4901418;29;20135;-64
2023/12/04 07:49:45;;;;;;;18.15;10.85;;;;;-0.70;98006.00;;;;4901690;29;20044;-64
2023/12/04 07:52:12;;;;;;;20.55;11.70;;;;;-0.70;98008.00;;;;4899913;29;20088;-64
2023/12/04 07:54:39;;;;;;;20.10;10.80;;;;;-0.60;98021.00;;;;4900243;29;20053;-64
2023/12/04 07:57:06;;;;;;;19.77;12.15;;;;;-0.50;98014.00;;;;4900716;29;20044;-63
2023/12/04 07:59:32;;;;;;;18.35;11.38;;;;;-0.40;98007.00;;;;4900706;29;20069;-63
2023/12/04 08:01:59;;;;;;;16.35;10.88;;;;;-0.30;98007.00;;;;4899199;29;20067;-63
2023/12/04 08:04:25;;;;;;;17.85;11.57;;;;;-0.20;98008.00;;;;4898756;29;20044;-64
2023/12/04 08:06:52;;;;;;;18.10;11.13;;;;;-0.20;97999.00;;;;4898747;29;20048;-63
2023/12/04 08:09:19;;;;;;;15.45;10.68;;;;;0.00;98003.00;;;;4900249;29;20045;-63
2023/12/04 08:11:45;;;;;;;18.27;10.70;;;;;0.00;97996.00;;;;4900617;29;20463;-64
2023/12/04 08:14:12;;;;;;;16.50;10.93;;;;;0.00;98004.00;;;;4899693;29;20123;-64
2023/12/04 08:16:39;;;;;;;20.23;11.20;;;;;0.10;97997.00;;;;4900208;29;20045;-64
2023/12/04 08:19:05;;;;;;;14.73;10.10;;;;;0.10;97998.00;;;;4900356;29;20040;-64
2023/12/04 08:21:32;;;;;;;14.60;9.50;;;;;0.10;97999.00;;;;4899124;29;20052;-64
2023/12/04 08:23:58;;;;;;;19.50;11.55;;;;;0.20;97998.00;;;;4899617;29;20128;-63
2023/12/04 08:26:25;;;;;;;15.82;10.15;;;;;0.20;98003.00;;;;4899119;29;20071;-64
2023/12/04 08:28:52;;;;;;;16.13;10.48;;;;;0.20;97993.00;;;;4914387;29;20047;-64
2023/12/04 08:31:19;;;;;;;16.52;10.85;;;;;0.30;97988.00;;;;4899174;29;20128;-64
2023/12/04 08:33:46;;;;;;;16.80;10.65;;;;;0.40;97987.00;;;;4899589;29;20052;-65
2023/12/04 08:36:12;;;;;;;15.40;10.35;;;;;0.40;97976.00;;;;4898914;29;20048;-64
2023/12/04 08:38:39;;;;;;;16.17;10.15;;;;;0.40;97981.00;;;;4898665;29;20045;-63
2023/12/04 08:41:06;;;;;;;18.05;11.70;;;;;0.30;97986.00;;;;4899992;29;20407;-64
2023/12/04 08:43:32;;;;;;;17.63;10.73;;;;;0.40;97986.00;;;;4899231;29;20487;-64
2023/12/04 08:46:00;;;;;;;16.60;10.73;;;;;0.40;97980.00;;;;4900089;29;20127;-64
2023/12/04 08:48:27;;;;;;;14.65;9.52;;;;;0.30;97983.00;;;;4899401;29;20044;-64
2023/12/04 08:50:54;;;;;;;16.35;9.90;;;;;0.50;97978.00;;;;4899373;29;20502;-64
2023/12/04 08:53:21;;;;;;;16.73;10.98;;;;;0.60;97985.00;;;;4882728;29;20494;-64
2023/12/04 08:55:47;;;;;;;16.85;10.43;;;;;0.70;97998.00;;;;4899976;29;20165;-63
2023/12/04 08:58:14;;;;;;;14.10;9.43;;;;;0.60;97996.00;;;;4898664;29;20506;-64
2023/12/04 09:00:42;;;;;;;15.20;10.00;;;;;0.60;97992.00;;;;4899651;29;20048;-65
2023/12/04 09:03:13;;;;;;;17.48;10.60;;;;;0.70;98001.00;;;;4898634;29;20045;-63
2023/12/04 09:05:51;;;;;;;16.50;10.20;;;;;0.60;97992.00;;;;4913018;29;20052;-64
2023/12/04 09:08:18;;;;;;;14.77;10.25;;;;;0.70;98000.00;;;;4898249;29;20053;-64
2023/12/04 09:11:03;;;;;;;16.40;10.23;;;;;0.80;98010.00;;;;4898224;29;20071;-63
2023/12/04 09:13:48;;;;;;;15.95;10.25;;;;;0.90;98012.00;;;;4899040;29;20225;-64
2023/12/04 09:16:15;;;;;;;15.98;9.75;;;;;1.00;98007.00;;;;4882598;29;20775;-64
2023/12/04 09:18:41;;;;;;;18.95;11.23;;;;;1.10;98009.00;;;;4899413;29;20044;-64
2023/12/04 09:21:08;;;;;;;17.02;10.65;;;;;1.00;97995.00;;;;4898008;29;20482;-63
2023/12/04 09:23:35;;;;;;;13.73;9.82;;;;;1.10;98000.00;;;;4897879;29;20084;-64
2023/12/04 09:26:02;;;;;;;18.27;10.55;;;;;1.10;98007.00;;;;4899626;29;20112;-64
2023/12/04 09:28:29;;;;;;;14.07;9.15;;;;;1.20;97997.00;;;;4899363;29;20048;-64
2023/12/04 09:30:56;;;;;;;17.40;10.85;;;;;1.30;98000.00;;;;4897911;29;20045;-64
2023/12/04 09:33:23;;;;;;;14.35;10.30;;;;;1.30;98006.00;;;;4898531;29;20047;-61
2023/12/04 09:35:50;;;;;;;15.30;9.82;;;;;1.30;98007.00;;;;4897728;29;20055;-64
2023/12/04 09:38:16;;;;;;;18.20;10.38;;;;;1.20;97996.00;;;;4899189;29;20120;-64
2023/12/04 09:40:43;;;;;;;20.45;10.10;;;;;1.30;97990.00;;;;4898794;29;20129;-62
2023/12/04 09:43:10;;;;;;;14.50;9.95;;;;;1.20;97999.00;;;;4898753;29;20052;-63
2023/12/04 09:45:39;;;;;;;13.00;9.25;;;;;1.10;97991.00;;;;4898151;29;20394;-64
2023/12/04 09:48:06;;;;;;;18.15;10.77;;;;;1.10;97985.00;;;;4897337;29;20049;-62
2023/12/04 09:50:33;;;;;;;17.95;10.77;;;;;1.00;97979.00;;;;4897445;29;20100;-63
2023/12/04 09:53:01;;;;;;;19.70;11.45;;;;;1.00;97977.00;;;;4898493;29;20053;-63
2023/12/04 09:55:28;;;;;;;17.27;12.02;;;;;1.00;97975.00;;;;4897970;29;20127;-66
2023/12/04 09:57:56;;;;;;;19.08;11.77;;;;;1.00;97967.00;;;;4897173;29;20079;-64
2023/12/04 10:00:24;;;;;;;19.38;12.27;;;;;1.00;97958.00;;;;4898437;29;20060;-63
2023/12/04 10:02:52;;;;;;;18.48;11.85;;;;;0.90;97959.00;;;;4897632;29;20084;-63
2023/12/04 10:05:18;;;;;;;21.77;11.68;;;;;0.90;97952.00;;;;4897804;29;20414;-63
2023/12/04 10:07:45;;;;;;;17.55;11.43;;;;;0.90;97944.00;;;;4897004;29;20048;-66
2023/12/04 10:10:14;;;;;;;18.45;11.52;;;;;1.00;97937.00;;;;4898221;29;20045;-64
2023/12/04 10:12:42;;;;;;;20.25;11.95;;;;;1.00;97930.00;;;;4897130;29;20414;-64
2023/12/04 10:15:11;;;;;;;20.30;11.55;;;;;1.00;97918.00;;;;4897600;29;20055;-64
2023/12/04 10:17:39;;;;;;;18.52;11.02;;;;;1.00;97922.00;;;;4898049;29;20117;-64
2023/12/04 10:20:17;;;;;;;19.52;11.63;;;;;1.00;97925.00;;;;4898485;29;20040;-65
2023/12/04 10:23:04;;;;;;;15.73;11.23;;;;;1.00;97916.00;;;;5069512;28;20391;-64
2023/12/04 10:25:31;;;;;;;18.13;10.23;;;;;1.10;97911.00;;;;5069009;28;20041;-64
2023/12/04 10:28:11;;;;;;;18.02;10.50;;;;;1.20;97899.00;;;;5069570;28;20040;-64
2023/12/04 10:30:38;;;;;;;21.00;11.55;;;;;1.30;97901.00;;;;5068421;28;20511;-64
2023/12/04 10:33:07;;;;;;;18.48;11.13;;;;;1.50;97901.00;;;;5069533;28;20036;-63
2023/12/04 10:35:36;;;;;;;16.52;9.73;;;;;1.50;97900.00;;;;5069097;28;20444;-64
2023/12/04 10:38:05;;;;;;;18.42;10.00;;;;;1.40;97891.00;;;;5069630;28;20045;-65
2023/12/04 10:40:33;;;;;;;17.95;10.85;;;;;1.30;97889.00;;;;5069662;28;20132;-62
2023/12/04 10:43:16;;;;;;;19.17;11.20;;;;;1.30;97880.00;;;;5070530;28;20060;-63
2023/12/04 10:45:45;;;;;;;17.27;10.68;;;;;1.30;97872.00;;;;5072709;28;20044;-62
2023/12/04 10:48:13;;;;;;;16.45;10.95;;;;;1.30;97866.00;;;;5070566;28;20135;-62
2023/12/04 10:50:42;;;;;;;17.00;10.93;;;;;1.20;97854.00;;;;5068453;28;20068;-61
2023/12/04 10:53:09;;;;;;;16.70;10.73;;;;;1.30;97851.00;;;;5069862;28;20041;-62
2023/12/04 10:55:37;;;;;;;14.95;9.50;;;;;1.40;97848.00;;;;5068349;28;20037;-62
2023/12/04 10:58:12;;;;;;;14.77;9.25;;;;;1.50;97843.00;;;;5069015;28;20045;-62
2023/12/04 11:00:42;;;;;;;15.85;9.38;;;;;1.60;97839.00;;;;5067836;28;20476;-62
2023/12/04 11:03:12;;;;;;;13.77;8.77;;;;;1.60;97832.00;;;;5051379;28;20064;-60
2023/12/04 11:05:40;;;;;;;14.40;9.50;;;;;1.60;97832.00;;;;5068116;28;20044;-61
2023/12/04 11:08:16;;;;;;;14.90;10.00;;;;;1.60;97827.00;;;;5068744;28;20505;-62
2023/12/04 11:10:58;;;;;;;14.35;9.05;;;;;1.50;97821.00;;;;5067457;28;20443;-62
2023/12/04 11:13:30;;;;;;;14.90;8.35;;;;;1.50;97818.00;;;;5050497;28;20411;-61
2023/12/04 11:16:19;;;;;;;14.38;8.55;;;;;1.50;97814.00;;;;5068518;28;20549;-62
2023/12/04 11:19:00;;;;;;;12.65;8.07;;;;;1.60;97806.00;;;;5068618;28;20045;-61
2023/12/04 11:21:32;;;;;;;12.80;7.90;;;;;1.60;97804.00;;;;5067373;28;20044;-61
2023/12/04 11:23:59;;;;;;;14.13;8.20;;;;;1.60;97793.00;;;;5068218;28;20509;-62
2023/12/04 11:26:27;;;;;;;12.38;7.88;;;;;1.70;97795.00;;;;5068719;28;20052;-61
2023/12/04 11:28:54;;;;;;;12.60;8.13;;;;;1.80;97789.00;;;;5069324;28;20454;-62
2023/12/04 11:31:22;;;;;;;10.90;7.38;;;;;1.80;97786.00;;;;5071743;28;20509;-62
2023/12/04 11:33:48;;;;;;;13.40;8.00;;;;;1.90;97782.00;;;;5064035;28;20101;-61
2023/12/04 11:36:15;;;;;;;11.15;7.78;;;;;1.80;97769.00;;;;5063233;28;20053;-63
2023/12/04 11:38:48;;;;;;;10.80;7.75;;;;;1.80;97758.00;;;;5064273;28;20098;-61
2023/12/04 11:41:20;;;;;;;11.55;7.45;;;;;1.90;97771.00;;;;5062756;28;20080;-61
2023/12/04 11:43:55;;;;;;;13.48;8.48;;;;;1.90;97748.00;;;;5064376;28;20044;-61
2023/12/04 11:46:23;;;;;;;14.25;7.47;;;;;1.90;97743.00;;;;5067959;28;20045;-62
2023/12/04 11:48:54;;;;;;;11.27;7.07;;;;;1.90;97740.00;;;;5074661;28;20071;-62
2023/12/04 11:51:40;;;;;;;11.80;7.03;;;;;2.00;97733.00;;;;5075642;28;20025;-63
2023/12/04 11:54:10;;;;;;;12.82;7.72;;;;;1.90;97732.00;;;;5075698;28;20060;-61
2023/12/04 11:56:37;;;;;;;15.73;8.48;;;;;2.00;97717.00;;;;5075855;28;20526;-62
2023/12/04 11:59:05;;;;;;;14.38;8.35;;;;;2.10;97711.00;;;;5076775;28;20052;-62
2023/12/04 12:01:36;;;;;;;10.20;7.68;;;;;2.10;97713.00;;;;5075507;28;20045;-63
2023/12/04 12:04:06;;;;;;;9.77;7.03;;;;;2.10;97719.00;;;;5075808;28;20065;-63
2023/12/04 12:06:34;;;;;;;12.18;7.07;;;;;2.10;97705.00;;;;5075624;28;20045;-63